createdAt,value
2018-05-31T00:01:12.438Z,18.84
2018-05-31T00:02:38.852Z,18.84
2018-05-31T00:04:06.124Z,18.86
2018-05-31T00:05:34.576Z,18.88
2018-05-31T00:07:01.009Z,18.89
2018-05-31T00:08:28.536Z,18.90
2018-05-31T00:09:55.776Z,18.89
2018-05-31T00:11:23.381Z,18.88
2018-05-31T00:12:51.549Z,18.85
2018-05-31T00:14:18.902Z,18.83
2018-05-31T00:15:45.053Z,18.82
2018-05-31T00:17:12.186Z,18.81
2018-05-31T00:18:39.693Z,18.81
2018-05-31T00:20:07.124Z,18.81
2018-05-31T00:21:34.595Z,18.77
2018-05-31T00:23:02.975Z,18.73
2018-05-31T00:24:29.329Z,18.70
2018-05-31T00:25:56.625Z,18.71
2018-05-31T00:27:24.011Z,18.72
2018-05-31T00:28:51.646Z,18.73
2018-05-31T00:30:19.960Z,18.72
2018-05-31T00:31:46.214Z,18.74
2018-05-31T00:33:13.742Z,18.75
2018-05-31T00:34:41.253Z,18.75
2018-05-31T00:36:08.497Z,18.75
2018-05-31T00:37:37.236Z,18.74
2018-05-31T00:39:03.731Z,18.73
2018-05-31T00:40:31.125Z,18.70
2018-05-31T00:41:59.684Z,18.68
2018-05-31T00:43:26.110Z,18.68
2018-05-31T00:44:53.671Z,18.67
2018-05-31T00:46:21.271Z,18.68
2018-05-31T00:47:48.604Z,18.67
2018-05-31T00:49:16.265Z,18.66
2018-05-31T00:50:43.493Z,18.67
2018-05-31T00:52:11.041Z,18.66
2018-05-31T00:53:38.544Z,18.64
2018-05-31T00:55:05.885Z,18.62
2018-05-31T00:56:33.417Z,18.59
2018-05-31T00:58:01.904Z,18.56
2018-05-31T00:59:28.287Z,18.55
2018-05-31T01:00:55.657Z,18.54
2018-05-31T01:02:23.198Z,18.55
2018-05-31T01:03:50.369Z,18.56
2018-05-31T01:05:19.084Z,18.51
2018-05-31T01:06:45.564Z,18.48
2018-05-31T01:08:13.098Z,18.46
2018-05-31T01:09:40.600Z,18.47
2018-05-31T01:11:09.159Z,18.50
2018-05-31T01:12:35.648Z,18.51
2018-05-31T01:14:03.165Z,18.51
2018-05-31T01:15:30.706Z,18.49
2018-05-31T01:16:58.150Z,18.45
2018-05-31T01:18:25.776Z,18.43
2018-05-31T01:19:53.181Z,18.41
2018-05-31T01:21:20.591Z,18.37
2018-05-31T01:22:47.999Z,18.34
2018-05-31T01:24:15.372Z,18.35
2018-05-31T01:25:42.782Z,18.35
2018-05-31T01:27:09.980Z,18.34
2018-05-31T01:28:38.420Z,18.32
2018-05-31T01:30:04.942Z,18.33
2018-05-31T01:31:32.358Z,18.31
2018-05-31T01:33:00.836Z,18.29
2018-05-31T01:34:27.117Z,18.27
2018-05-31T01:35:55.650Z,18.24
2018-05-31T01:37:22.007Z,18.22
2018-05-31T01:38:49.393Z,18.20
2018-05-31T01:40:17.015Z,18.21
2018-05-31T01:41:45.502Z,18.23
2018-05-31T01:43:12.810Z,18.23
2018-05-31T01:44:39.272Z,18.21
2018-05-31T01:46:06.609Z,18.17
2018-05-31T01:47:35.097Z,18.14
2018-05-31T01:49:01.329Z,18.11
2018-05-31T01:50:29.686Z,18.08
2018-05-31T01:51:57.382Z,18.06
2018-05-31T01:53:23.756Z,18.03
2018-05-31T01:54:51.283Z,18.02
2018-05-31T01:56:19.689Z,17.99
2018-05-31T01:57:46.033Z,17.96
2018-05-31T01:59:13.450Z,17.94
2018-05-31T02:00:40.945Z,17.94
2018-05-31T02:02:08.479Z,17.91
2018-05-31T02:03:36.023Z,17.92
2018-05-31T02:05:04.330Z,17.94
2018-05-31T02:06:30.597Z,17.94
2018-05-31T02:07:58.107Z,17.92
2018-05-31T02:09:25.324Z,17.91
2018-05-31T02:10:53.936Z,17.89
2018-05-31T02:12:21.437Z,17.86
2018-05-31T02:13:48.778Z,17.84
2018-05-31T02:15:15.330Z,17.83
2018-05-31T02:16:44.032Z,17.81
2018-05-31T02:18:10.442Z,17.78
2018-05-31T02:19:37.940Z,17.76
2018-05-31T02:21:05.445Z,17.73
2018-05-31T02:22:32.852Z,17.72
2018-05-31T02:24:00.200Z,17.72
2018-05-31T02:25:27.497Z,17.71
2018-05-31T02:26:54.800Z,17.70
2018-05-31T02:28:23.420Z,17.68
2018-05-31T02:29:49.836Z,17.68
2018-05-31T02:31:18.487Z,17.68
2018-05-31T02:32:46.025Z,17.69
2018-05-31T02:34:12.524Z,17.68
2018-05-31T02:35:41.120Z,17.68
2018-05-31T02:37:07.582Z,17.66
2018-05-31T02:38:35.896Z,17.64
2018-05-31T02:40:02.216Z,17.63
2018-05-31T02:41:29.733Z,17.63
2018-05-31T02:42:57.034Z,17.61
2018-05-31T02:44:24.444Z,17.60
2018-05-31T02:45:51.993Z,17.58
2018-05-31T02:47:19.454Z,17.57
2018-05-31T02:48:46.865Z,17.56
2018-05-31T02:50:14.344Z,17.55
2018-05-31T02:51:42.785Z,17.56
2018-05-31T02:53:10.482Z,17.56
2018-05-31T02:54:37.989Z,17.57
2018-05-31T02:56:04.364Z,17.56
2018-05-31T02:57:33.030Z,17.57
2018-05-31T02:59:00.555Z,17.58
2018-05-31T03:00:26.732Z,17.57
2018-05-31T03:01:54.204Z,17.59
2018-05-31T03:03:22.574Z,17.60
2018-05-31T03:04:50.052Z,17.61
2018-05-31T03:06:16.403Z,17.62
2018-05-31T03:07:43.988Z,17.64
2018-05-31T03:09:11.227Z,17.66
2018-05-31T03:10:38.790Z,17.68
2018-05-31T03:12:07.093Z,17.69
2018-05-31T03:13:33.256Z,17.71
2018-05-31T03:15:01.795Z,17.71
2018-05-31T03:16:28.128Z,17.70
2018-05-31T03:17:56.730Z,17.69
2018-05-31T03:19:22.966Z,17.67
2018-05-31T03:20:50.412Z,17.65
2018-05-31T03:22:17.787Z,17.62
2018-05-31T03:23:46.208Z,17.60
2018-05-31T03:25:12.644Z,17.60
2018-05-31T03:26:41.155Z,17.58
2018-05-31T03:28:08.629Z,17.56
2018-05-31T03:29:36.041Z,17.55
2018-05-31T03:31:02.538Z,17.55
2018-05-31T03:32:29.885Z,17.55
2018-05-31T03:33:56.932Z,17.55
2018-05-31T03:35:27.513Z,17.55
2018-05-31T03:36:51.921Z,17.56
2018-05-31T03:38:20.393Z,17.57
2018-05-31T03:39:47.957Z,17.58
2018-05-31T03:41:15.256Z,17.59
2018-05-31T03:42:41.536Z,17.59
2018-05-31T03:44:10.075Z,17.58
2018-05-31T03:45:36.288Z,17.57
2018-05-31T03:47:04.730Z,17.56
2018-05-31T03:48:31.292Z,17.57
2018-05-31T03:49:58.555Z,17.59
2018-05-31T03:51:27.065Z,17.68
2018-05-31T03:52:54.563Z,17.86
2018-05-31T03:54:21.000Z,18.03
2018-05-31T03:55:48.335Z,18.19
2018-05-31T03:57:15.927Z,18.28
2018-05-31T03:58:43.463Z,18.34
2018-05-31T04:00:10.937Z,18.42
2018-05-31T04:01:38.294Z,18.43
2018-05-31T04:03:05.647Z,18.44
2018-05-31T04:04:34.137Z,18.44
2018-05-31T04:06:00.596Z,18.45
2018-05-31T04:07:27.908Z,18.45
2018-05-31T04:08:56.408Z,18.47
2018-05-31T04:10:22.898Z,18.49
2018-05-31T04:11:50.333Z,18.51
2018-05-31T04:13:17.670Z,18.52
2018-05-31T04:14:45.079Z,18.51
2018-05-31T04:16:12.597Z,18.51
2018-05-31T04:17:40.148Z,18.52
2018-05-31T04:19:07.514Z,18.52
2018-05-31T04:20:34.929Z,18.53
2018-05-31T04:22:02.560Z,18.54
2018-05-31T04:23:31.164Z,18.55
2018-05-31T04:24:57.540Z,18.57
2018-05-31T04:26:26.051Z,18.58
2018-05-31T04:27:52.541Z,18.60
2018-05-31T04:29:20.989Z,18.61
2018-05-31T04:30:47.281Z,18.64
2018-05-31T04:32:15.985Z,18.67
2018-05-31T04:33:42.446Z,18.70
2018-05-31T04:35:09.972Z,18.72
2018-05-31T04:36:37.280Z,18.75
2018-05-31T04:38:04.844Z,18.78
2018-05-31T04:39:32.262Z,18.82
2018-05-31T04:40:59.635Z,18.85
2018-05-31T04:42:27.972Z,18.88
2018-05-31T04:43:54.412Z,18.91
2018-05-31T04:45:21.901Z,18.94
2018-05-31T04:46:49.399Z,18.97
2018-05-31T04:48:16.938Z,19.01
2018-05-31T04:49:45.209Z,19.04
2018-05-31T04:51:11.799Z,19.07
2018-05-31T04:52:39.392Z,19.12
2018-05-31T04:54:07.036Z,19.15
2018-05-31T04:55:34.435Z,19.19
2018-05-31T04:57:01.996Z,19.24
2018-05-31T04:58:29.419Z,19.28
2018-05-31T04:59:57.117Z,19.32
2018-05-31T05:01:24.623Z,19.36
2018-05-31T05:02:53.158Z,19.41
2018-05-31T05:04:19.606Z,19.47
2018-05-31T05:05:47.157Z,19.52
2018-05-31T05:07:14.676Z,19.58
2018-05-31T05:08:43.399Z,19.65
2018-05-31T05:10:09.831Z,19.71
2018-05-31T05:11:37.375Z,19.78
2018-05-31T05:13:04.887Z,19.84
2018-05-31T05:14:32.366Z,19.90
2018-05-31T05:15:59.864Z,19.94
2018-05-31T05:17:27.299Z,19.98
2018-05-31T05:18:56.057Z,20.00
2018-05-31T05:20:22.536Z,20.00
2018-05-31T05:21:51.106Z,19.99
2018-05-31T05:23:17.717Z,19.99
2018-05-31T05:24:45.341Z,19.99
2018-05-31T05:26:13.967Z,19.99
2018-05-31T05:27:40.533Z,20.04
2018-05-31T05:29:07.449Z,20.13
2018-05-31T05:30:34.830Z,20.23
2018-05-31T05:32:03.312Z,20.32
2018-05-31T05:33:29.684Z,20.42
2018-05-31T05:34:57.060Z,20.51
2018-05-31T05:36:24.388Z,20.62
2018-05-31T05:37:53.006Z,20.77
2018-05-31T05:39:19.308Z,20.92
2018-05-31T05:40:46.951Z,21.07
2018-05-31T05:42:14.305Z,21.24
2018-05-31T05:43:41.845Z,21.41
2018-05-31T05:45:09.442Z,21.58
2018-05-31T05:46:36.977Z,21.74
2018-05-31T05:48:05.467Z,21.89
2018-05-31T05:49:33.100Z,22.03
2018-05-31T05:51:00.653Z,22.17
2018-05-31T05:52:27.028Z,22.28
2018-05-31T05:53:54.341Z,22.41
2018-05-31T05:55:21.982Z,22.51
2018-05-31T05:56:49.664Z,22.58
2018-05-31T05:58:18.288Z,22.64
2018-05-31T05:59:44.933Z,22.68
2018-05-31T06:01:12.317Z,22.76
2018-05-31T06:02:41.063Z,22.82
2018-05-31T06:04:07.343Z,22.86
2018-05-31T06:05:34.304Z,22.91
2018-05-31T06:07:01.630Z,22.97
2018-05-31T06:08:29.240Z,23.03
2018-05-31T06:09:56.899Z,23.13
2018-05-31T06:11:24.336Z,23.27
2018-05-31T06:12:51.926Z,23.40
2018-05-31T06:14:19.576Z,23.54
2018-05-31T06:15:47.251Z,23.66
2018-05-31T06:17:14.833Z,23.80
2018-05-31T06:18:42.870Z,23.98
2018-05-31T06:20:09.556Z,24.08
2018-05-31T06:21:36.786Z,24.17
2018-05-31T06:23:04.412Z,24.24
2018-05-31T06:24:32.082Z,24.32
2018-05-31T06:25:59.460Z,24.44
2018-05-31T06:27:28.241Z,24.49
2018-05-31T06:28:54.886Z,24.54
2018-05-31T06:30:22.556Z,24.54
2018-05-31T06:31:51.135Z,24.51
2018-05-31T06:33:17.545Z,24.50
2018-05-31T06:34:45.158Z,24.55
2018-05-31T06:36:12.870Z,24.62
2018-05-31T06:37:40.393Z,24.77
2018-05-31T06:39:09.150Z,24.88
2018-05-31T06:40:35.802Z,25.02
2018-05-31T06:42:03.331Z,25.21
2018-05-31T06:43:32.085Z,25.35
2018-05-31T06:44:59.516Z,25.41
2018-05-31T06:46:25.850Z,25.52
2018-05-31T06:47:53.622Z,25.56
2018-05-31T06:49:21.038Z,25.48
2018-05-31T06:50:48.716Z,25.44
2018-05-31T06:52:16.279Z,25.47
2018-05-31T06:53:43.900Z,25.53
2018-05-31T06:55:12.605Z,25.59
2018-05-31T06:56:39.144Z,25.65
2018-05-31T06:58:06.673Z,25.66
2018-05-31T06:59:34.063Z,25.65
2018-05-31T07:01:02.665Z,25.62
2018-05-31T07:02:29.752Z,25.60
2018-05-31T07:03:56.392Z,25.59
2018-05-31T07:05:23.861Z,25.59
2018-05-31T07:06:51.517Z,25.62
2018-05-31T07:08:20.231Z,25.63
2018-05-31T07:09:47.879Z,25.75
2018-05-31T07:11:13.986Z,25.89
2018-05-31T07:12:42.524Z,25.98
2018-05-31T07:14:10.168Z,26.03
2018-05-31T07:15:36.807Z,26.09
2018-05-31T07:17:03.993Z,26.12
2018-05-31T07:18:31.296Z,26.21
2018-05-31T07:19:58.798Z,26.19
2018-05-31T07:21:27.628Z,26.17
2018-05-31T07:22:53.715Z,26.11
2018-05-31T07:24:22.332Z,26.13
2018-05-31T07:25:49.403Z,26.20
2018-05-31T07:27:15.813Z,26.26
2018-05-31T07:28:44.352Z,26.21
2018-05-31T07:30:10.772Z,26.26
2018-05-31T07:31:38.154Z,26.26
2018-05-31T07:33:05.579Z,26.28
2018-05-31T07:34:33.424Z,26.36
2018-05-31T07:36:00.667Z,26.42
2018-05-31T07:37:28.367Z,26.44
2018-05-31T07:38:56.073Z,26.48
2018-05-31T07:40:29.819Z,26.54
2018-05-31T07:41:52.214Z,26.57
2018-05-31T07:43:18.228Z,26.60
2018-05-31T07:44:45.306Z,26.56
2018-05-31T07:46:13.968Z,26.51
2018-05-31T07:47:40.320Z,26.51
2018-05-31T07:49:08.997Z,26.54
2018-05-31T07:50:35.591Z,26.55
2018-05-31T07:52:04.180Z,26.52
2018-05-31T07:53:30.806Z,26.42
2018-05-31T07:54:59.178Z,26.38
2018-05-31T07:56:25.213Z,26.27
2018-05-31T07:57:53.206Z,26.25
2018-05-31T07:59:20.788Z,26.30
2018-05-31T08:00:48.410Z,26.34
2018-05-31T08:02:16.001Z,26.40
2018-05-31T08:03:43.746Z,26.41
2018-05-31T08:05:11.338Z,26.38
2018-05-31T08:06:38.925Z,26.36
2018-05-31T08:08:07.488Z,26.36
2018-05-31T08:09:33.953Z,26.39
2018-05-31T08:11:02.423Z,26.45
2018-05-31T08:12:30.167Z,26.50
2018-05-31T08:13:56.732Z,26.57
2018-05-31T08:15:25.432Z,26.63
2018-05-31T08:16:52.120Z,26.66
2018-05-31T08:18:19.736Z,26.67
2018-05-31T08:19:47.197Z,26.63
2018-05-31T08:21:14.880Z,26.58
2018-05-31T08:22:42.218Z,26.57
2018-05-31T08:24:10.384Z,26.60
2018-05-31T08:25:36.906Z,26.59
2018-05-31T08:27:05.482Z,26.59
2018-05-31T08:28:33.073Z,26.64
2018-05-31T08:29:59.743Z,26.73
2018-05-31T08:31:27.353Z,26.78
2018-05-31T08:32:54.651Z,26.84
2018-05-31T08:34:22.220Z,26.91
2018-05-31T08:35:49.968Z,26.97
2018-05-31T08:37:18.667Z,27.03
2018-05-31T08:38:46.423Z,27.09
2018-05-31T08:40:13.349Z,27.12
2018-05-31T08:41:41.962Z,27.09
2018-05-31T08:43:08.213Z,27.06
2018-05-31T08:44:35.591Z,27.04
2018-05-31T08:46:03.103Z,27.04
2018-05-31T08:47:30.655Z,27.12
2018-05-31T08:48:58.009Z,27.17
2018-05-31T08:50:25.613Z,27.24
2018-05-31T08:51:53.176Z,27.28
2018-05-31T08:53:20.777Z,27.25
2018-05-31T08:54:48.482Z,27.20
2018-05-31T08:56:16.199Z,27.16
2018-05-31T08:57:43.835Z,27.19
2018-05-31T08:59:11.039Z,27.25
2018-05-31T09:00:39.583Z,27.32
2018-05-31T09:02:06.338Z,27.36
2018-05-31T09:03:33.859Z,27.36
2018-05-31T09:05:01.127Z,27.38
2018-05-31T09:06:28.799Z,27.44
2018-05-31T09:07:57.497Z,27.47
2018-05-31T09:09:25.245Z,27.51
2018-05-31T09:10:51.917Z,27.50
2018-05-31T09:12:20.062Z,27.53
2018-05-31T09:13:46.997Z,27.57
2018-05-31T09:15:14.675Z,27.61
2018-05-31T09:16:42.259Z,27.65
2018-05-31T09:18:10.811Z,27.69
2018-05-31T09:19:37.145Z,27.62
2018-05-31T09:21:05.178Z,27.62
2018-05-31T09:22:32.551Z,27.67
2018-05-31T09:23:59.228Z,27.65
2018-05-31T09:25:26.692Z,27.67
2018-05-31T09:26:53.473Z,27.72
2018-05-31T09:28:20.821Z,27.74
2018-05-31T09:29:48.452Z,27.78
2018-05-31T09:31:16.023Z,27.81
2018-05-31T09:32:44.624Z,27.87
2018-05-31T09:34:11.072Z,27.93
2018-05-31T09:35:38.716Z,28.00
2018-05-31T09:37:06.321Z,28.03
2018-05-31T09:38:34.969Z,28.07
2018-05-31T09:40:01.576Z,28.10
2018-05-31T09:41:30.399Z,28.11
2018-05-31T09:42:57.203Z,28.06
2018-05-31T09:44:24.842Z,28.02
2018-05-31T09:45:52.578Z,27.99
2018-05-31T09:47:20.257Z,27.99
2018-05-31T09:48:47.831Z,27.98
2018-05-31T09:50:16.459Z,27.95
2018-05-31T09:51:42.783Z,27.88
2018-05-31T09:53:10.768Z,27.83
2018-05-31T09:54:37.438Z,27.85
2018-05-31T09:56:04.659Z,27.86
2018-05-31T09:57:32.347Z,27.94
2018-05-31T09:58:59.847Z,28.02
2018-05-31T10:00:27.595Z,28.08
2018-05-31T10:01:55.241Z,28.08
2018-05-31T10:03:22.235Z,28.13
2018-05-31T10:04:49.982Z,28.19
2018-05-31T10:06:17.394Z,28.25
2018-05-31T10:07:45.055Z,28.23
2018-05-31T10:09:13.855Z,28.21
2018-05-31T10:10:40.994Z,28.20
2018-05-31T10:12:08.067Z,28.23
2018-05-31T10:13:34.518Z,28.29
2018-05-31T10:15:01.838Z,28.35
2018-05-31T10:16:29.505Z,28.37
2018-05-31T10:17:57.452Z,28.29
2018-05-31T10:19:25.056Z,28.23
2018-05-31T10:20:52.310Z,28.25
2018-05-31T10:22:20.551Z,28.32
2018-05-31T10:23:46.505Z,28.36
2018-05-31T10:25:13.790Z,28.36
2018-05-31T10:26:42.458Z,28.37
2018-05-31T10:28:09.604Z,28.42
2018-05-31T10:29:37.232Z,28.48
2018-05-31T10:31:03.672Z,28.56
2018-05-31T10:32:32.371Z,28.61
2018-05-31T10:33:59.659Z,28.62
2018-05-31T10:35:29.036Z,28.65
2018-05-31T10:36:53.700Z,28.59
2018-05-31T10:38:21.355Z,28.60
2018-05-31T10:39:50.046Z,28.67
2018-05-31T10:41:16.547Z,28.66
2018-05-31T10:42:44.167Z,28.66
2018-05-31T10:44:11.844Z,28.73
2018-05-31T10:45:40.476Z,28.81
2018-05-31T10:47:06.790Z,28.82
2018-05-31T10:48:33.942Z,28.81
2018-05-31T10:50:02.388Z,28.85
2018-05-31T10:51:29.651Z,28.95
2018-05-31T10:52:57.073Z,28.97
2018-05-31T10:54:23.950Z,29.08
2018-05-31T10:55:51.769Z,29.19
2018-05-31T10:57:18.368Z,29.25
2018-05-31T10:58:46.160Z,29.38
2018-05-31T11:00:13.382Z,29.48
2018-05-31T11:01:40.539Z,29.53
2018-05-31T11:03:07.845Z,29.56
2018-05-31T11:04:36.537Z,29.60
2018-05-31T11:06:02.937Z,29.73
2018-05-31T11:07:30.610Z,29.83
2018-05-31T11:08:58.169Z,29.91
2018-05-31T11:10:25.806Z,29.95
2018-05-31T11:11:53.393Z,29.95
2018-05-31T11:13:21.014Z,29.98
2018-05-31T11:14:48.716Z,29.99
2018-05-31T11:16:17.482Z,30.12
2018-05-31T11:17:43.794Z,30.20
2018-05-31T11:19:12.558Z,30.36
2018-05-31T11:20:39.117Z,30.54
2018-05-31T11:22:06.894Z,30.66
2018-05-31T11:23:34.437Z,30.73
2018-05-31T11:25:01.916Z,30.75
2018-05-31T11:26:29.574Z,30.81
2018-05-31T11:27:57.197Z,30.77
2018-05-31T11:29:25.561Z,30.83
2018-05-31T11:30:52.218Z,30.87
2018-05-31T11:32:20.465Z,30.90
2018-05-31T11:33:47.036Z,31.07
2018-05-31T11:35:14.659Z,31.29
2018-05-31T11:36:42.395Z,31.43
2018-05-31T11:38:09.965Z,31.61
2018-05-31T11:39:37.520Z,31.75
2018-05-31T11:41:05.206Z,31.82
2018-05-31T11:42:32.500Z,31.62
2018-05-31T11:43:59.598Z,31.46
2018-05-31T11:45:27.143Z,31.38
2018-05-31T11:46:55.794Z,31.27
2018-05-31T11:48:22.110Z,31.19
2018-05-31T11:49:49.790Z,31.00
2018-05-31T11:51:17.561Z,30.88
2018-05-31T11:52:45.860Z,30.81
2018-05-31T11:54:12.577Z,30.93
2018-05-31T11:55:41.400Z,30.92
2018-05-31T11:57:08.085Z,30.98
2018-05-31T11:58:35.564Z,30.97
2018-05-31T12:00:03.305Z,30.93
2018-05-31T12:01:30.969Z,31.03
2018-05-31T12:02:59.622Z,31.17
2018-05-31T12:04:26.014Z,31.15
2018-05-31T12:05:53.757Z,31.19
2018-05-31T12:07:21.464Z,31.26
2018-05-31T12:08:48.779Z,31.30
2018-05-31T12:10:17.459Z,31.40
2018-05-31T12:11:44.047Z,31.53
2018-05-31T12:13:11.863Z,31.68
2018-05-31T12:14:39.663Z,31.73
2018-05-31T12:16:07.283Z,31.73
2018-05-31T12:17:35.127Z,31.71
2018-05-31T12:19:02.832Z,31.85
2018-05-31T12:20:31.384Z,31.89
2018-05-31T12:21:57.971Z,31.81
2018-05-31T12:23:25.597Z,31.81
2018-05-31T12:24:53.476Z,31.90
2018-05-31T12:26:21.311Z,32.01
2018-05-31T12:27:49.016Z,32.07
2018-05-31T12:29:17.784Z,32.08
2018-05-31T12:30:45.490Z,32.07
2018-05-31T12:32:12.058Z,32.07
2018-05-31T12:33:39.384Z,32.13
2018-05-31T12:35:06.930Z,32.18
2018-05-31T12:36:34.684Z,32.15
2018-05-31T12:38:02.382Z,32.12
2018-05-31T12:39:29.690Z,32.06
2018-05-31T12:40:57.382Z,32.04
2018-05-31T12:42:25.216Z,32.00
2018-05-31T12:43:52.428Z,32.09
2018-05-31T12:45:20.176Z,32.16
2018-05-31T12:46:49.069Z,32.26
2018-05-31T12:48:15.536Z,32.33
2018-05-31T12:49:43.335Z,32.36
2018-05-31T12:51:12.111Z,32.21
2018-05-31T12:52:38.583Z,32.11
2018-05-31T12:54:06.135Z,32.04
2018-05-31T12:55:33.755Z,31.92
2018-05-31T12:57:01.508Z,31.95
2018-05-31T12:58:28.711Z,32.01
2018-05-31T12:59:56.321Z,31.91
2018-05-31T13:01:25.128Z,31.77
2018-05-31T13:02:51.384Z,31.66
2018-05-31T13:04:20.078Z,31.48
2018-05-31T13:05:46.329Z,31.39
2018-05-31T13:07:13.894Z,31.28
2018-05-31T13:08:41.563Z,31.17
2018-05-31T13:10:10.210Z,31.01
2018-05-31T13:11:36.933Z,30.97
2018-05-31T13:13:04.475Z,30.84
2018-05-31T13:14:32.878Z,30.74
2018-05-31T13:16:00.407Z,30.59
2018-05-31T13:17:27.186Z,30.49
2018-05-31T13:18:54.454Z,30.43
2018-05-31T13:20:23.035Z,30.39
2018-05-31T13:21:49.823Z,30.26
2018-05-31T13:23:17.585Z,30.22
2018-05-31T13:24:45.363Z,30.21
2018-05-31T13:26:12.885Z,30.13
2018-05-31T13:27:41.610Z,30.08
2018-05-31T13:29:08.263Z,30.01
2018-05-31T13:30:35.990Z,29.85
2018-05-31T13:32:03.581Z,29.75
2018-05-31T13:33:32.360Z,29.70
2018-05-31T13:34:58.699Z,29.63
2018-05-31T13:36:26.520Z,29.60
2018-05-31T13:37:55.168Z,29.53
2018-05-31T13:39:21.811Z,29.47
2018-05-31T13:40:49.413Z,29.40
2018-05-31T13:42:17.171Z,29.26
2018-05-31T13:43:44.892Z,29.17
2018-05-31T13:45:12.597Z,29.07
2018-05-31T13:46:40.167Z,28.97
2018-05-31T13:48:08.223Z,28.93
2018-05-31T13:49:35.555Z,28.89
2018-05-31T13:51:02.033Z,28.88
2018-05-31T13:52:29.745Z,28.94
2018-05-31T13:53:57.343Z,28.93
2018-05-31T13:55:25.072Z,28.90
2018-05-31T13:56:52.471Z,28.93
2018-05-31T13:58:20.184Z,28.94
2018-05-31T13:59:47.792Z,28.94
2018-05-31T14:01:14.857Z,28.85
2018-05-31T14:02:43.475Z,28.84
2018-05-31T14:04:10.033Z,28.82
2018-05-31T14:05:40.747Z,28.81
2018-05-31T14:07:05.245Z,28.77
2018-05-31T14:08:32.808Z,28.72
2018-05-31T14:09:59.948Z,28.69
2018-05-31T14:11:27.431Z,28.65
2018-05-31T14:12:54.978Z,28.58
2018-05-31T14:14:22.750Z,28.51
2018-05-31T14:15:51.486Z,28.47
2018-05-31T14:17:18.189Z,28.43
2018-05-31T14:18:45.844Z,28.38
2018-05-31T14:20:14.512Z,28.38
2018-05-31T14:21:41.155Z,28.39
2018-05-31T14:23:11.721Z,28.37
2018-05-31T14:24:37.315Z,28.34
2018-05-31T14:26:04.004Z,28.25
2018-05-31T14:27:31.592Z,28.15
2018-05-31T14:28:59.882Z,28.06
2018-05-31T14:30:26.006Z,27.99
2018-05-31T14:31:53.664Z,27.93
2018-05-31T14:33:21.293Z,27.82
2018-05-31T14:34:48.831Z,27.80
2018-05-31T14:36:16.626Z,27.73
2018-05-31T14:37:44.306Z,27.65
2018-05-31T14:39:12.896Z,27.59
2018-05-31T14:40:39.579Z,27.54
2018-05-31T14:42:08.074Z,27.50
2018-05-31T14:43:34.852Z,27.44
2018-05-31T14:45:01.443Z,27.43
2018-05-31T14:46:28.950Z,27.41
2018-05-31T14:47:56.568Z,27.37
2018-05-31T14:49:24.267Z,27.33
2018-05-31T14:50:52.966Z,27.29
2018-05-31T14:52:19.559Z,27.28
2018-05-31T14:53:47.104Z,27.23
2018-05-31T14:55:14.751Z,27.21
2018-05-31T14:56:42.377Z,27.20
2018-05-31T14:58:11.122Z,27.14
2018-05-31T14:59:37.685Z,27.12
2018-05-31T15:01:06.179Z,27.06
2018-05-31T15:02:32.667Z,26.98
2018-05-31T15:03:59.848Z,26.94
2018-05-31T15:05:28.211Z,26.89
2018-05-31T15:06:54.795Z,26.86
2018-05-31T15:08:23.465Z,26.86
2018-05-31T15:09:51.172Z,26.86
2018-05-31T15:11:17.430Z,26.85
2018-05-31T15:12:44.722Z,26.85
2018-05-31T15:14:12.502Z,26.83
2018-05-31T15:15:40.061Z,26.80
2018-05-31T15:17:08.323Z,26.77
2018-05-31T15:18:35.975Z,26.75
2018-05-31T15:20:02.412Z,26.69
2018-05-31T15:21:30.151Z,26.65
2018-05-31T15:22:57.018Z,26.64
2018-05-31T15:24:25.714Z,26.61
2018-05-31T15:25:53.248Z,26.61
2018-05-31T15:27:19.745Z,26.63
2018-05-31T15:28:47.117Z,26.63
2018-05-31T15:30:14.580Z,26.60
2018-05-31T15:31:43.180Z,26.61
2018-05-31T15:33:09.877Z,26.56
2018-05-31T15:34:37.157Z,26.54
2018-05-31T15:36:05.808Z,26.50
2018-05-31T15:37:31.776Z,26.46
2018-05-31T15:38:59.372Z,26.40
2018-05-31T15:40:27.086Z,26.35
2018-05-31T15:41:55.800Z,26.28
2018-05-31T15:43:22.466Z,26.18
2018-05-31T15:44:50.140Z,26.11
2018-05-31T15:46:18.693Z,26.09
2018-05-31T15:47:45.308Z,26.03
2018-05-31T15:49:13.910Z,25.96
2018-05-31T15:50:40.613Z,25.92
2018-05-31T15:52:08.247Z,25.88
2018-05-31T15:53:35.492Z,25.86
2018-05-31T15:55:04.144Z,25.86
2018-05-31T15:56:30.543Z,25.84
2018-05-31T15:57:59.023Z,25.79
2018-05-31T15:59:26.760Z,25.70
2018-05-31T16:00:54.414Z,25.63
2018-05-31T16:02:21.132Z,25.59
2018-05-31T16:03:49.132Z,25.51
2018-05-31T16:05:16.767Z,25.46
2018-05-31T16:06:44.389Z,25.45
2018-05-31T16:08:10.964Z,25.42
2018-05-31T16:09:38.475Z,25.40
2018-05-31T16:11:06.687Z,25.40
2018-05-31T16:12:33.316Z,25.38
2018-05-31T16:14:01.911Z,25.38
2018-05-31T16:15:29.338Z,25.39
2018-05-31T16:16:55.969Z,25.37
2018-05-31T16:18:23.474Z,25.35
2018-05-31T16:19:50.784Z,25.30
2018-05-31T16:21:18.357Z,25.26
2018-05-31T16:22:45.987Z,25.24
2018-05-31T16:24:13.664Z,25.21
2018-05-31T16:25:41.238Z,25.21
2018-05-31T16:27:08.837Z,25.23
2018-05-31T16:28:36.240Z,25.23
2018-05-31T16:30:03.952Z,25.22
2018-05-31T16:31:32.633Z,25.22
2018-05-31T16:32:59.076Z,25.24
2018-05-31T16:34:26.992Z,25.22
2018-05-31T16:35:54.271Z,25.23
2018-05-31T16:37:20.911Z,25.25
2018-05-31T16:38:48.473Z,25.29
2018-05-31T16:40:16.028Z,25.28
2018-05-31T16:41:43.253Z,25.27
2018-05-31T16:43:11.930Z,25.20
2018-05-31T16:44:38.465Z,25.14
2018-05-31T16:46:06.040Z,25.08
2018-05-31T16:47:33.106Z,24.96
2018-05-31T16:49:00.428Z,24.90
2018-05-31T16:50:28.007Z,24.83
2018-05-31T16:51:55.606Z,24.74
2018-05-31T16:53:24.311Z,24.70
2018-05-31T16:54:50.821Z,24.71
2018-05-31T16:56:19.440Z,24.69
2018-05-31T16:57:46.159Z,24.62
2018-05-31T16:59:14.743Z,24.55
2018-05-31T17:00:41.550Z,24.53
2018-05-31T17:02:08.035Z,24.46
2018-05-31T17:03:35.768Z,24.42
2018-05-31T17:05:03.209Z,24.40
2018-05-31T17:06:30.767Z,24.34
2018-05-31T17:07:59.337Z,24.32
2018-05-31T17:09:25.922Z,24.30
2018-05-31T17:10:53.371Z,24.28
2018-05-31T17:12:21.004Z,24.26
2018-05-31T17:13:49.625Z,24.20
2018-05-31T17:15:16.251Z,24.13
2018-05-31T17:16:43.879Z,24.10
2018-05-31T17:18:11.567Z,24.09
2018-05-31T17:19:40.187Z,24.02
2018-05-31T17:21:07.093Z,23.95
2018-05-31T17:22:34.680Z,23.90
2018-05-31T17:24:00.835Z,23.84
2018-05-31T17:25:28.375Z,23.78
2018-05-31T17:26:55.412Z,23.76
2018-05-31T17:28:24.237Z,23.73
2018-05-31T17:29:51.706Z,23.72
2018-05-31T17:31:19.548Z,23.66
2018-05-31T17:32:46.197Z,23.54
2018-05-31T17:34:13.049Z,23.50
2018-05-31T17:35:40.898Z,23.47
2018-05-31T17:37:08.373Z,23.37
2018-05-31T17:38:34.911Z,23.29
2018-05-31T17:40:02.490Z,23.27
2018-05-31T17:41:30.065Z,23.24
2018-05-31T17:42:57.406Z,23.21
2018-05-31T17:44:25.228Z,23.13
2018-05-31T17:45:52.840Z,23.06
2018-05-31T17:47:20.398Z,23.01
2018-05-31T17:48:47.964Z,23.01
2018-05-31T17:50:14.702Z,22.96
2018-05-31T17:51:41.341Z,22.93
2018-05-31T17:53:08.467Z,22.89
2018-05-31T17:54:35.998Z,22.88
2018-05-31T17:56:03.495Z,22.86
2018-05-31T17:57:30.899Z,22.81
2018-05-31T17:58:58.129Z,22.79
2018-05-31T18:00:25.869Z,22.75
2018-05-31T18:01:53.412Z,22.71
2018-05-31T18:03:21.050Z,22.69
2018-05-31T18:04:48.355Z,22.58
2018-05-31T18:06:16.312Z,22.55
2018-05-31T18:07:42.565Z,22.52
2018-05-31T18:09:11.151Z,22.50
2018-05-31T18:10:37.525Z,22.45
2018-05-31T18:12:04.654Z,22.42
2018-05-31T18:13:33.030Z,22.37
2018-05-31T18:14:59.563Z,22.33
2018-05-31T18:16:27.216Z,22.31
2018-05-31T18:17:54.009Z,22.30
2018-05-31T18:19:21.310Z,22.28
2018-05-31T18:20:51.889Z,22.22
2018-05-31T18:22:17.426Z,22.17
2018-05-31T18:23:44.008Z,22.09
2018-05-31T18:25:12.610Z,22.05
2018-05-31T18:26:39.163Z,21.99
2018-05-31T18:28:06.687Z,21.94
2018-05-31T18:29:34.304Z,21.94
2018-05-31T18:31:01.523Z,21.88
2018-05-31T18:32:30.043Z,21.88
2018-05-31T18:33:57.928Z,21.85
2018-05-31T18:35:24.668Z,21.81
2018-05-31T18:36:51.188Z,21.79
2018-05-31T18:38:18.631Z,21.78
2018-05-31T18:39:46.345Z,21.76
2018-05-31T18:41:14.922Z,21.74
2018-05-31T18:42:41.489Z,21.69
2018-05-31T18:44:08.987Z,21.65
2018-05-31T18:45:36.464Z,21.60
2018-05-31T18:47:04.903Z,21.56